Terminal Aerodrome Forecast
Issued by NWS State College, PA

Home | Current Version | Previous Version | Text Only | Print | Product List | Glossary On
Versions: 1 2 3 4 5 6 7 8 9 10 11 12 13 14 15 16 17 18 19 20 21 22 23 24 25 26 27 28 29 30 31 32 33 34 35
000
FTUS41 KCTP 222359
TAFIPT
TAF
KIPT 222359Z 2300/2324 26007KT 6SM -RA VCTS BKN050CB OVC100
     FM230100 25006KT P6SM VCSH BKN050
     FM230700 28004KT P6SM OVC025
     FM231300 28008KT P6SM FEW050=

USA.gov is the U.S. government's official web portal to all federal, state and local government web resources and services.